Aviation Digital Data Service (ADDS)

Output produced by METARs form (1539 UTC 20 March 2019)
found at http://www.aviationweather.gov/metar/data/
 
METAR text: KMIA 201453Z 34007KT 10SM SCT012 BKN050 21/18 A3001 RMK AO2 SLP163 T02060178 51010
Conditions at: KMIA (MIAMI , FL, US) observed 1453 UTC 20 March 2019
Temperature: 20.6°C (69°F)
Dewpoint: 17.8°C (64°F) [RH = 84%]
Pressure (altimeter): 30.01 inches Hg (1016.3 mb)
[Sea-level pressure: 1016.3 mb]
Winds: from the NNW (340 degrees) at 8 MPH (7 knots; 3.6 m/s)
Visibility: 10 or more miles (16+ km)
Ceiling: 5000 feet AGL
Clouds: scattered clouds at 1200 feet AGL
broken clouds at 5000 feet AGL
Weather: no significant weather observed at this time

METAR text: KMIA 201353Z 34007KT 10SM SCT008 SCT026 BKN050 20/18 A3001 RMK AO2 SLP161 T02000178
Conditions at: KMIA (MIAMI , FL, US) observed 1353 UTC 20 March 2019
Temperature: 20.0°C (68°F)
Dewpoint: 17.8°C (64°F) [RH = 87%]
Pressure (altimeter): 30.01 inches Hg (1016.3 mb)
[Sea-level pressure: 1016.1 mb]
Winds: from the NNW (340 degrees) at 8 MPH (7 knots; 3.6 m/s)
Visibility: 10 or more miles (16+ km)
Ceiling: 5000 feet AGL
Clouds: scattered clouds at 800 feet AGL
scattered clouds at 2600 feet AGL
broken clouds at 5000 feet AGL
Weather: no significant weather observed at this time

METAR text: KMIA 201345Z 33006KT 10SM SCT008 SCT026 BKN050 19/18 A3001 RMK AO2 T01940183
Conditions at: KMIA (MIAMI , FL, US) observed 1345 UTC 20 March 2019
Temperature: 19.4°C (67°F)
Dewpoint: 18.3°C (65°F) [RH = 93%]
Pressure (altimeter): 30.01 inches Hg (1016.3 mb)
Winds: from the NNW (330 degrees) at 7 MPH (6 knots; 3.1 m/s)
Visibility: 10 or more miles (16+ km)
Ceiling: 5000 feet AGL
Clouds: scattered clouds at 800 feet AGL
scattered clouds at 2600 feet AGL
broken clouds at 5000 feet AGL
Weather: no significant weather observed at this time

METAR text: KMIA 201253Z 32007KT 10SM OVC008 18/18 A2999 RMK AO2 SLP156 T01830178
Conditions at: KMIA (MIAMI , FL, US) observed 1253 UTC 20 March 2019
Temperature: 18.3°C (65°F)
Dewpoint: 17.8°C (64°F) [RH = 97%]
Pressure (altimeter): 29.99 inches Hg (1015.7 mb)
[Sea-level pressure: 1015.6 mb]
Winds: from the NW (320 degrees) at 8 MPH (7 knots; 3.6 m/s)
Visibility: 10 or more miles (16+ km)
Ceiling: 800 feet AGL
Clouds: overcast cloud deck at 800 feet AGL
Weather: no significant weather observed at this time

METAR text: KMIA 201233Z 34007KT 10SM BKN009 OVC065 18/18 A2999 RMK AO2 T01830178
Conditions at: KMIA (MIAMI , FL, US) observed 1233 UTC 20 March 2019
Temperature: 18.3°C (65°F)
Dewpoint: 17.8°C (64°F) [RH = 97%]
Pressure (altimeter): 29.99 inches Hg (1015.7 mb)
Winds: from the NNW (340 degrees) at 8 MPH (7 knots; 3.6 m/s)
Visibility: 10 or more miles (16+ km)
Ceiling: 900 feet AGL
Clouds: broken clouds at 900 feet AGL
overcast cloud deck at 6500 feet AGL
Weather: no significant weather observed at this time

METAR text: KMIA 201209Z VRB06KT 10SM FEW009 BKN041 OVC065 18/17 A2998 RMK AO2 T01830172
Conditions at: KMIA (MIAMI , FL, US) observed 1209 UTC 20 March 2019
Temperature: 18.3°C (65°F)
Dewpoint: 17.2°C (63°F) [RH = 93%]
Pressure (altimeter): 29.98 inches Hg (1015.3 mb)
Winds: variable direction winds at 7 MPH (6 knots; 3.1 m/s)
Visibility: 10 or more miles (16+ km)
Ceiling: 4100 feet AGL
Clouds: few clouds at 900 feet AGL
broken clouds at 4100 feet AGL
overcast cloud deck at 6500 feet AGL
Weather: no significant weather observed at this time

METAR text: KMIA 201153Z 35008KT 10SM FEW010 SCT023 OVC039 18/17 A2998 RMK AO2 SLP153 60000 70095 T01780172 10194 20178 53010
Conditions at: KMIA (MIAMI , FL, US) observed 1153 UTC 20 March 2019
Temperature: 17.8°C (64°F)
Dewpoint: 17.2°C (63°F) [RH = 96%]
Pressure (altimeter): 29.98 inches Hg (1015.3 mb)
[Sea-level pressure: 1015.3 mb]
Winds: from the N (350 degrees) at 9 MPH (8 knots; 4.1 m/s)
Visibility: 10 or more miles (16+ km)
Ceiling: 3900 feet AGL
Clouds: few clouds at 1000 feet AGL
scattered clouds at 2300 feet AGL
overcast cloud deck at 3900 feet AGL
Weather: no significant weather observed at this time

METAR text: KMIA 201126Z 32007KT 10SM SCT010 OVC023 18/17 A2998 RMK AO2 T01780172
Conditions at: KMIA (MIAMI , FL, US) observed 1126 UTC 20 March 2019
Temperature: 17.8°C (64°F)
Dewpoint: 17.2°C (63°F) [RH = 96%]
Pressure (altimeter): 29.98 inches Hg (1015.3 mb)
Winds: from the NW (320 degrees) at 8 MPH (7 knots; 3.6 m/s)
Visibility: 10 or more miles (16+ km)
Ceiling: 2300 feet AGL
Clouds: scattered clouds at 1000 feet AGL
overcast cloud deck at 2300 feet AGL
Weather: no significant weather observed at this time

METAR text: KMIA 201119Z 33006KT 10SM BKN010 BKN023 OVC047 18/17 A2998 RMK AO2 T01780172
Conditions at: KMIA (MIAMI , FL, US) observed 1119 UTC 20 March 2019
Temperature: 17.8°C (64°F)
Dewpoint: 17.2°C (63°F) [RH = 96%]
Pressure (altimeter): 29.98 inches Hg (1015.3 mb)
Winds: from the NNW (330 degrees) at 7 MPH (6 knots; 3.1 m/s)
Visibility: 10 or more miles (16+ km)
Ceiling: 1000 feet AGL
Clouds: broken clouds at 1000 feet AGL
broken clouds at 2300 feet AGL
overcast cloud deck at 4700 feet AGL
Weather: no significant weather observed at this time

METAR text: KMIA 201053Z 33005KT 10SM BKN008 BKN016 OVC044 18/17 A2997 RMK AO2 SLP149 T01780172
Conditions at: KMIA (MIAMI , FL, US) observed 1053 UTC 20 March 2019
Temperature: 17.8°C (64°F)
Dewpoint: 17.2°C (63°F) [RH = 96%]
Pressure (altimeter): 29.97 inches Hg (1015.0 mb)
[Sea-level pressure: 1014.9 mb]
Winds: from the NNW (330 degrees) at 6 MPH (5 knots; 2.6 m/s)
Visibility: 10 or more miles (16+ km)
Ceiling: 800 feet AGL
Clouds: broken clouds at 800 feet AGL
broken clouds at 1600 feet AGL
overcast cloud deck at 4400 feet AGL
Weather: no significant weather observed at this time

METAR text: KMIA 201041Z 34005KT 10SM SCT008 BKN015 OVC044 18/17 A2997 RMK AO2 T01780172
Conditions at: KMIA (MIAMI , FL, US) observed 1041 UTC 20 March 2019
Temperature: 17.8°C (64°F)
Dewpoint: 17.2°C (63°F) [RH = 96%]
Pressure (altimeter): 29.97 inches Hg (1015.0 mb)
Winds: from the NNW (340 degrees) at 6 MPH (5 knots; 2.6 m/s)
Visibility: 10 or more miles (16+ km)
Ceiling: 1500 feet AGL
Clouds: scattered clouds at 800 feet AGL
broken clouds at 1500 feet AGL
overcast cloud deck at 4400 feet AGL
Weather: no significant weather observed at this time

METAR text: KMIA 200953Z 34007KT 10SM SCT006 BKN040 BKN080 OVC150 18/18 A2995 RMK AO2 RAB10E22 SLP143 P0000 T01780178
Conditions at: KMIA (MIAMI , FL, US) observed 0953 UTC 20 March 2019
Temperature: 17.8°C (64°F)
Dewpoint: 17.8°C (64°F) [RH = 100%]
Pressure (altimeter): 29.95 inches Hg (1014.3 mb)
[Sea-level pressure: 1014.3 mb]
Winds: from the NNW (340 degrees) at 8 MPH (7 knots; 3.6 m/s)
Visibility: 10 or more miles (16+ km)
Ceiling: 4000 feet AGL
Clouds: scattered clouds at 600 feet AGL
broken clouds at 4000 feet AGL
broken clouds at 8000 feet AGL
overcast cloud deck at 15000 feet AGL
Weather: no significant weather observed at this time

METAR text: KMIA 200853Z 33007KT 10SM BKN004 BKN031 OVC050 18/18 A2995 RMK AO2 RAE02 SLP143 P0000 60000 T01830183 56014
Conditions at: KMIA (MIAMI , FL, US) observed 0853 UTC 20 March 2019
Temperature: 18.3°C (65°F)
Dewpoint: 18.3°C (65°F) [RH = 100%]
Pressure (altimeter): 29.95 inches Hg (1014.3 mb)
[Sea-level pressure: 1014.3 mb]
Winds: from the NNW (330 degrees) at 8 MPH (7 knots; 3.6 m/s)
Visibility: 10 or more miles (16+ km)
Ceiling: 400 feet AGL
Clouds: broken clouds at 400 feet AGL
broken clouds at 3100 feet AGL
overcast cloud deck at 5000 feet AGL
Weather: no significant weather observed at this time

METAR text: KMIA 200838Z 32006KT 10SM BKN004 BKN031 BKN050 OVC130 18/18 A2995 RMK AO2 RAE02 P0000 T01830183
Conditions at: KMIA (MIAMI , FL, US) observed 0838 UTC 20 March 2019
Temperature: 18.3°C (65°F)
Dewpoint: 18.3°C (65°F) [RH = 100%]
Pressure (altimeter): 29.95 inches Hg (1014.3 mb)
Winds: from the NW (320 degrees) at 7 MPH (6 knots; 3.1 m/s)
Visibility: 10 or more miles (16+ km)
Ceiling: 400 feet AGL
Clouds: broken clouds at 400 feet AGL
broken clouds at 3100 feet AGL
broken clouds at 5000 feet AGL
overcast cloud deck at 13000 feet AGL
Weather: no significant weather observed at this time

METAR text: KMIA 200753Z VRB04KT 6SM -RA BR SCT006 BKN017 BKN055 OVC130 19/19 A2996 RMK AO2 RAB21 SLP144 P0000 T01890189
Conditions at: KMIA (MIAMI , FL, US) observed 0753 UTC 20 March 2019
Temperature: 18.9°C (66°F)
Dewpoint: 18.9°C (66°F) [RH = 100%]
Pressure (altimeter): 29.96 inches Hg (1014.6 mb)
[Sea-level pressure: 1014.4 mb]
Winds: variable direction winds at 5 MPH (4 knots; 2.1 m/s)
Visibility: 6 miles (10 km)
Ceiling: 1700 feet AGL
Clouds: scattered clouds at 600 feet AGL
broken clouds at 1700 feet AGL
broken clouds at 5500 feet AGL
overcast cloud deck at 13000 feet AGL
Weather: -RA BR  (light rain, mist)

METAR text: KMIA 200653Z 07003KT 10SM FEW008 BKN028 OVC060 19/19 A2997 RMK AO2 RAE0556 SLP148 P0000 T01940189
Conditions at: KMIA (MIAMI , FL, US) observed 0653 UTC 20 March 2019
Temperature: 19.4°C (67°F)
Dewpoint: 18.9°C (66°F) [RH = 97%]
Pressure (altimeter): 29.97 inches Hg (1015.0 mb)
[Sea-level pressure: 1014.8 mb]
Winds: from the ENE (70 degrees) at 3 MPH (3 knots; 1.5 m/s)
Visibility: 10 or more miles (16+ km)
Ceiling: 2800 feet AGL
Clouds: few clouds at 800 feet AGL
broken clouds at 2800 feet AGL
overcast cloud deck at 6000 feet AGL
Weather: no significant weather observed at this time

METAR text: KMIA 200553Z 06004KT 6SM -RA BR FEW008 BKN028 OVC060 19/19 A2999 RMK AO2 RAE06B33 SLP156 P0000 60007 T01940194 10206 20178 58018
Conditions at: KMIA (MIAMI , FL, US) observed 0553 UTC 20 March 2019
Temperature: 19.4°C (67°F)
Dewpoint: 19.4°C (67°F) [RH = 100%]
Pressure (altimeter): 29.99 inches Hg (1015.7 mb)
[Sea-level pressure: 1015.6 mb]
Winds: from the ENE (60 degrees) at 5 MPH (4 knots; 2.1 m/s)
Visibility: 6 miles (10 km)
Ceiling: 2800 feet AGL
Clouds: few clouds at 800 feet AGL
broken clouds at 2800 feet AGL
overcast cloud deck at 6000 feet AGL
Weather: -RA BR  (light rain, mist)

METAR text: KMIA 200453Z 03007KT 4SM -RA BR FEW006 BKN018 OVC028 18/18 A3002 RMK AO2 RAE07B24 SLP164 P0001 T01830183 402170178
Conditions at: KMIA (MIAMI , FL, US) observed 0453 UTC 20 March 2019
Temperature: 18.3°C (65°F)
Dewpoint: 18.3°C (65°F) [RH = 100%]
Pressure (altimeter): 30.02 inches Hg (1016.7 mb)
[Sea-level pressure: 1016.4 mb]
Winds: from the NNE (30 degrees) at 8 MPH (7 knots; 3.6 m/s)
Visibility: 4 miles ( 6 km)
Ceiling: 1800 feet AGL
Clouds: few clouds at 600 feet AGL
broken clouds at 1800 feet AGL
overcast cloud deck at 2800 feet AGL
Weather: -RA BR  (light rain, mist)

METAR text: KMIA 200416Z 35004KT 7SM SCT006 BKN015 OVC025 18/18 A3004 RMK AO2 RAE07 P0001 T01830183
Conditions at: KMIA (MIAMI , FL, US) observed 0416 UTC 20 March 2019
Temperature: 18.3°C (65°F)
Dewpoint: 18.3°C (65°F) [RH = 100%]
Pressure (altimeter): 30.04 inches Hg (1017.4 mb)
Winds: from the N (350 degrees) at 5 MPH (4 knots; 2.1 m/s)
Visibility: 7 miles (11 km)
Ceiling: 1500 feet AGL
Clouds: scattered clouds at 600 feet AGL
broken clouds at 1500 feet AGL
overcast cloud deck at 2500 feet AGL
Weather: no significant weather observed at this time

METAR text: KMIA 200353Z VRB05KT 4SM -RA BR BKN006 BKN015 OVC025 18/18 A3004 RMK AO2 SLP171 P0001 T01780178
Conditions at: KMIA (MIAMI , FL, US) observed 0353 UTC 20 March 2019
Temperature: 17.8°C (64°F)
Dewpoint: 17.8°C (64°F) [RH = 100%]
Pressure (altimeter): 30.04 inches Hg (1017.4 mb)
[Sea-level pressure: 1017.1 mb]
Winds: variable direction winds at 6 MPH (5 knots; 2.6 m/s)
Visibility: 4 miles ( 6 km)
Ceiling: 600 feet AGL
Clouds: broken clouds at 600 feet AGL
broken clouds at 1500 feet AGL
overcast cloud deck at 2500 feet AGL
Weather: -RA BR  (light rain, mist)

METAR text: KMIA 200253Z 34005KT 6SM -RA BR BKN006 OVC011 18/18 A3004 RMK AO2 SLP174 P0004 60005 T01780178 51015
Conditions at: KMIA (MIAMI , FL, US) observed 0253 UTC 20 March 2019
Temperature: 17.8°C (64°F)
Dewpoint: 17.8°C (64°F) [RH = 100%]
Pressure (altimeter): 30.04 inches Hg (1017.4 mb)
[Sea-level pressure: 1017.4 mb]
Winds: from the NNW (340 degrees) at 6 MPH (5 knots; 2.6 m/s)
Visibility: 6 miles (10 km)
Ceiling: 600 feet AGL
Clouds: broken clouds at 600 feet AGL
overcast cloud deck at 1100 feet AGL
Weather: -RA BR  (light rain, mist)

METAR text: KMIA 200153Z 34007KT 6SM -RA BR BKN006 OVC011 19/19 A3004 RMK AO2 RAE0059B23 SLP171 P0001 T01890189
Conditions at: KMIA (MIAMI , FL, US) observed 0153 UTC 20 March 2019
Temperature: 18.9°C (66°F)
Dewpoint: 18.9°C (66°F) [RH = 100%]
Pressure (altimeter): 30.04 inches Hg (1017.4 mb)
[Sea-level pressure: 1017.1 mb]
Winds: from the NNW (340 degrees) at 8 MPH (7 knots; 3.6 m/s)
Visibility: 6 miles (10 km)
Ceiling: 600 feet AGL
Clouds: broken clouds at 600 feet AGL
overcast cloud deck at 1100 feet AGL
Weather: -RA BR  (light rain, mist)

METAR text: KMIA 200141Z 33007KT 6SM -RA BR BKN006 BKN011 OVC013 19/19 A3003 RMK AO2 RAE0059B23 P0000 T01940194
Conditions at: KMIA (MIAMI , FL, US) observed 0141 UTC 20 March 2019
Temperature: 19.4°C (67°F)
Dewpoint: 19.4°C (67°F) [RH = 100%]
Pressure (altimeter): 30.03 inches Hg (1017.0 mb)
Winds: from the NNW (330 degrees) at 8 MPH (7 knots; 3.6 m/s)
Visibility: 6 miles (10 km)
Ceiling: 600 feet AGL
Clouds: broken clouds at 600 feet AGL
broken clouds at 1100 feet AGL
overcast cloud deck at 1300 feet AGL
Weather: -RA BR  (light rain, mist)

METAR text: KMIA 200130Z 34006KT 6SM -RA BR SCT006 BKN013 OVC029 19/19 A3003 RMK AO2 RAE0059B23 P0000 T01940194
Conditions at: KMIA (MIAMI , FL, US) observed 0130 UTC 20 March 2019
Temperature: 19.4°C (67°F)
Dewpoint: 19.4°C (67°F) [RH = 100%]
Pressure (altimeter): 30.03 inches Hg (1017.0 mb)
Winds: from the NNW (340 degrees) at 7 MPH (6 knots; 3.1 m/s)
Visibility: 6 miles (10 km)
Ceiling: 1300 feet AGL
Clouds: scattered clouds at 600 feet AGL
broken clouds at 1300 feet AGL
overcast cloud deck at 2900 feet AGL
Weather: -RA BR  (light rain, mist)

METAR text: KMIA 200123Z VRB03KT 6SM -RA BR FEW006 BKN020 OVC036 20/19 A3002 RMK AO2 RAE0059B23 P0000 T02000194
Conditions at: KMIA (MIAMI , FL, US) observed 0123 UTC 20 March 2019
Temperature: 20.0°C (68°F)
Dewpoint: 19.4°C (67°F) [RH = 96%]
Pressure (altimeter): 30.02 inches Hg (1016.7 mb)
Winds: variable direction winds at 3 MPH (3 knots; 1.5 m/s)
Visibility: 6 miles (10 km)
Ceiling: 2000 feet AGL
Clouds: few clouds at 600 feet AGL
broken clouds at 2000 feet AGL
overcast cloud deck at 3600 feet AGL
Weather: -RA BR  (light rain, mist)

METAR text: KMIA 200053Z 34003KT 6SM -RA BR SCT015 OVC023 20/19 A3001 RMK AO2 RAE01B34 SLP164 P0000 T02000189
Conditions at: KMIA (MIAMI , FL, US) observed 0053 UTC 20 March 2019
Temperature: 20.0°C (68°F)
Dewpoint: 18.9°C (66°F) [RH = 93%]
Pressure (altimeter): 30.01 inches Hg (1016.3 mb)
[Sea-level pressure: 1016.4 mb]
Winds: from the NNW (340 degrees) at 3 MPH (3 knots; 1.5 m/s)
Visibility: 6 miles (10 km)
Ceiling: 2300 feet AGL
Clouds: scattered clouds at 1500 feet AGL
overcast cloud deck at 2300 feet AGL
Weather: -RA BR  (light rain, mist)

METAR text: KMIA 200021Z VRB05KT 10SM FEW015 BKN023 OVC044 21/19 A3001 RMK AO2 RAE01 P0000 T02060194
Conditions at: KMIA (MIAMI , FL, US) observed 0021 UTC 20 March 2019
Temperature: 20.6°C (69°F)
Dewpoint: 19.4°C (67°F) [RH = 93%]
Pressure (altimeter): 30.01 inches Hg (1016.3 mb)
Winds: variable direction winds at 6 MPH (5 knots; 2.6 m/s)
Visibility: 10 or more miles (16+ km)
Ceiling: 2300 feet AGL
Clouds: few clouds at 1500 feet AGL
broken clouds at 2300 feet AGL
overcast cloud deck at 4400 feet AGL
Weather: no significant weather observed at this time

METAR text: KMIA 200005Z 00000KT 10SM SCT015 BKN032 OVC044 21/19 A2999 RMK AO2 RAE01 P0000 T02060194
Conditions at: KMIA (MIAMI , FL, US) observed 0005 UTC 20 March 2019
Temperature: 20.6°C (69°F)
Dewpoint: 19.4°C (67°F) [RH = 93%]
Pressure (altimeter): 29.99 inches Hg (1015.7 mb)
Winds: calm
Visibility: 10 or more miles (16+ km)
Ceiling: 3200 feet AGL
Clouds: scattered clouds at 1500 feet AGL
broken clouds at 3200 feet AGL
overcast cloud deck at 4400 feet AGL
Weather: no significant weather observed at this time

METAR text: KMIA 192353Z VRB04KT 7SM -RA BKN015 BKN020 OVC042 21/19 A3000 RMK AO2 RAB49 SLP159 P0001 60006 T02060189 10217 20194 53005
Conditions at: KMIA (MIAMI , FL, US) observed 2353 UTC 19 March 2019
Temperature: 20.6°C (69°F)
Dewpoint: 18.9°C (66°F) [RH = 90%]
Pressure (altimeter): 30.00 inches Hg (1016.0 mb)
[Sea-level pressure: 1015.9 mb]
Winds: variable direction winds at 5 MPH (4 knots; 2.1 m/s)
Visibility: 7 miles (11 km)
Ceiling: 1500 feet AGL
Clouds: broken clouds at 1500 feet AGL
broken clouds at 2000 feet AGL
overcast cloud deck at 4200 feet AGL
Weather: -RA  (light rain)

METAR text: KMIA 192253Z 05008KT 10SM FEW015 SCT029 BKN035 OVC130 21/19 A2998 RMK AO2 SLP153 T02060189
Conditions at: KMIA (MIAMI , FL, US) observed 2253 UTC 19 March 2019
Temperature: 20.6°C (69°F)
Dewpoint: 18.9°C (66°F) [RH = 90%]
Pressure (altimeter): 29.98 inches Hg (1015.3 mb)
[Sea-level pressure: 1015.3 mb]
Winds: from the NE (50 degrees) at 9 MPH (8 knots; 4.1 m/s)
Visibility: 10 or more miles (16+ km)
Ceiling: 3500 feet AGL
Clouds: few clouds at 1500 feet AGL
scattered clouds at 2900 feet AGL
broken clouds at 3500 feet AGL
overcast cloud deck at 13000 feet AGL
Weather: no significant weather observed at this time

METAR text: KMIA 192153Z 04009KT 10SM FEW014 SCT025 BKN100 OVC250 21/19 A2998 RMK AO2 RAE00 SLP154 P0000 T02110189
Conditions at: KMIA (MIAMI , FL, US) observed 2153 UTC 19 March 2019
Temperature: 21.1°C (70°F)
Dewpoint: 18.9°C (66°F) [RH = 87%]
Pressure (altimeter): 29.98 inches Hg (1015.3 mb)
[Sea-level pressure: 1015.4 mb]
Winds: from the NE (40 degrees) at 10 MPH (9 knots; 4.6 m/s)
Visibility: 10 or more miles (16+ km)
Ceiling: 10000 feet AGL
Clouds: few clouds at 1400 feet AGL
scattered clouds at 2500 feet AGL
broken clouds at 10000 feet AGL
overcast cloud deck at 25000 feet AGL
Weather: no significant weather observed at this time

METAR text: KMIA 192053Z 03006KT 10SM -RA FEW016 SCT025 OVC030 21/19 A2999 RMK AO2 RAB34 SLP154 P0000 60005 T02060189 56020
Conditions at: KMIA (MIAMI , FL, US) observed 2053 UTC 19 March 2019
Temperature: 20.6°C (69°F)
Dewpoint: 18.9°C (66°F) [RH = 90%]
Pressure (altimeter): 29.99 inches Hg (1015.7 mb)
[Sea-level pressure: 1015.4 mb]
Winds: from the NNE (30 degrees) at 7 MPH (6 knots; 3.1 m/s)
Visibility: 10 or more miles (16+ km)
Ceiling: 3000 feet AGL
Clouds: few clouds at 1600 feet AGL
scattered clouds at 2500 feet AGL
overcast cloud deck at 3000 feet AGL
Weather: -RA  (light rain)

METAR text: KMIA 192051Z 04006G14KT 10SM -RA FEW016 SCT025 OVC030 21/19 A2999 RMK AO2 RAB34 P0000
Conditions at: KMIA (MIAMI , FL, US) observed 2051 UTC 19 March 2019
Temperature: 21.0°C (70°F)
Dewpoint: 19.0°C (66°F) [RH = 88%]
Pressure (altimeter): 29.99 inches Hg (1015.7 mb)
Winds: from the NE (40 degrees) at 7 MPH (6 knots; 3.1 m/s)
gusting to 16 MPH (14 knots; 7.2 m/s)
Visibility: 10 or more miles (16+ km)
Ceiling: 3000 feet AGL
Clouds: few clouds at 1600 feet AGL
scattered clouds at 2500 feet AGL
overcast cloud deck at 3000 feet AGL
Weather: -RA  (light rain)

METAR text: KMIA 192020Z 02007KT 10SM SCT014 OVC023 21/19 A2999 RMK AO2 T02060194
Conditions at: KMIA (MIAMI , FL, US) observed 2020 UTC 19 March 2019
Temperature: 20.6°C (69°F)
Dewpoint: 19.4°C (67°F) [RH = 93%]
Pressure (altimeter): 29.99 inches Hg (1015.7 mb)
Winds: from the NNE (20 degrees) at 8 MPH (7 knots; 3.6 m/s)
Visibility: 10 or more miles (16+ km)
Ceiling: 2300 feet AGL
Clouds: scattered clouds at 1400 feet AGL
overcast cloud deck at 2300 feet AGL
Weather: no significant weather observed at this time

METAR text: KMIA 191953Z 04006KT 10SM BKN013 OVC021 21/20 A2999 RMK AO2 RAE32 SLP156 P0000 T02060200
Conditions at: KMIA (MIAMI , FL, US) observed 1953 UTC 19 March 2019
Temperature: 20.6°C (69°F)
Dewpoint: 20.0°C (68°F) [RH = 96%]
Pressure (altimeter): 29.99 inches Hg (1015.7 mb)
[Sea-level pressure: 1015.6 mb]
Winds: from the NE (40 degrees) at 7 MPH (6 knots; 3.1 m/s)
Visibility: 10 or more miles (16+ km)
Ceiling: 1300 feet AGL
Clouds: broken clouds at 1300 feet AGL
overcast cloud deck at 2100 feet AGL
Weather: no significant weather observed at this time

METAR text: KMIA 191923Z 02007KT 10SM -RA BKN012 BKN070 OVC120 21/20 A2999 RMK AO2 P0000 T02060200
Conditions at: KMIA (MIAMI , FL, US) observed 1923 UTC 19 March 2019
Temperature: 20.6°C (69°F)
Dewpoint: 20.0°C (68°F) [RH = 96%]
Pressure (altimeter): 29.99 inches Hg (1015.7 mb)
Winds: from the NNE (20 degrees) at 8 MPH (7 knots; 3.6 m/s)
Visibility: 10 or more miles (16+ km)
Ceiling: 1200 feet AGL
Clouds: broken clouds at 1200 feet AGL
broken clouds at 7000 feet AGL
overcast cloud deck at 12000 feet AGL
Weather: -RA  (light rain)

METAR text: KMIA 191853Z 07009G19KT 7SM -RA FEW009 BKN080 OVC100 20/19 A2998 RMK AO2 SLP151 P0005 T02000189
Conditions at: KMIA (MIAMI , FL, US) observed 1853 UTC 19 March 2019
Temperature: 20.0°C (68°F)
Dewpoint: 18.9°C (66°F) [RH = 93%]
Pressure (altimeter): 29.98 inches Hg (1015.3 mb)
[Sea-level pressure: 1015.1 mb]
Winds: from the ENE (70 degrees) at 10 MPH (9 knots; 4.6 m/s)
gusting to 22 MPH (19 knots; 9.8 m/s)
Visibility: 7 miles (11 km)
Ceiling: 8000 feet AGL
Clouds: few clouds at 900 feet AGL
broken clouds at 8000 feet AGL
overcast cloud deck at 10000 feet AGL
Weather: -RA  (light rain)

METAR text: KMIA 191844Z 07012KT 7SM -RA SCT009 BKN080 OVC100 19/19 A2998 RMK AO2 PRESFR P0005 T01940189
Conditions at: KMIA (MIAMI , FL, US) observed 1844 UTC 19 March 2019
Temperature: 19.4°C (67°F)
Dewpoint: 18.9°C (66°F) [RH = 97%]
Pressure (altimeter): 29.98 inches Hg (1015.3 mb)
Winds: from the ENE (70 degrees) at 14 MPH (12 knots; 6.2 m/s)
Visibility: 7 miles (11 km)
Ceiling: 8000 feet AGL
Clouds: scattered clouds at 900 feet AGL
broken clouds at 8000 feet AGL
overcast cloud deck at 10000 feet AGL
Weather: -RA  (light rain)

METAR text: KMIA 191812Z 05009KT 6SM -RA BR BKN009 BKN060 OVC100 20/20 A3002 RMK AO2 PRESFR P0002 T02000200
Conditions at: KMIA (MIAMI , FL, US) observed 1812 UTC 19 March 2019
Temperature: 20.0°C (68°F)
Dewpoint: 20.0°C (68°F) [RH = 100%]
Pressure (altimeter): 30.02 inches Hg (1016.7 mb)
Winds: from the NE (50 degrees) at 10 MPH (9 knots; 4.6 m/s)
Visibility: 6 miles (10 km)
Ceiling: 900 feet AGL
Clouds: broken clouds at 900 feet AGL
broken clouds at 6000 feet AGL
overcast cloud deck at 10000 feet AGL
Weather: -RA BR  (light rain, mist)

METAR text: KMIA 191753Z 03007KT 6SM -RA BR FEW007 BKN060 OVC100 19/19 A3004 RMK AO2 PRESFR SLP174 P0006 60082 T01940194 10200 20183 58011
Conditions at: KMIA (MIAMI , FL, US) observed 1753 UTC 19 March 2019
Temperature: 19.4°C (67°F)
Dewpoint: 19.4°C (67°F) [RH = 100%]
Pressure (altimeter): 30.04 inches Hg (1017.4 mb)
[Sea-level pressure: 1017.4 mb]
Winds: from the NNE (30 degrees) at 8 MPH (7 knots; 3.6 m/s)
Visibility: 6 miles (10 km)
Ceiling: 6000 feet AGL
Clouds: few clouds at 700 feet AGL
broken clouds at 6000 feet AGL
overcast cloud deck at 10000 feet AGL
Weather: -RA BR  (light rain, mist)

METAR text: KMIA 191653Z 04006KT 10SM -RA SCT007 SCT065 OVC085 19/19 A3008 RMK AO2 SLP186 P0016 T01940194
Conditions at: KMIA (MIAMI , FL, US) observed 1653 UTC 19 March 2019
Temperature: 19.4°C (67°F)
Dewpoint: 19.4°C (67°F) [RH = 100%]
Pressure (altimeter): 30.08 inches Hg (1018.7 mb)
[Sea-level pressure: 1018.6 mb]
Winds: from the NE (40 degrees) at 7 MPH (6 knots; 3.1 m/s)
Visibility: 10 or more miles (16+ km)
Ceiling: 8500 feet AGL
Clouds: scattered clouds at 700 feet AGL
scattered clouds at 6500 feet AGL
overcast cloud deck at 8500 feet AGL
Weather: -RA  (light rain)

METAR text: KMIA 191650Z 03003KT 10SM -RA SCT007 SCT065 OVC085 19/19 A3008 RMK AO2 P0016
Conditions at: KMIA (MIAMI , FL, US) observed 1650 UTC 19 March 2019
Temperature: 19.0°C (66°F)
Dewpoint: 19.0°C (66°F) [RH = 100%]
Pressure (altimeter): 30.08 inches Hg (1018.7 mb)
Winds: from the NNE (30 degrees) at 3 MPH (3 knots; 1.5 m/s)
Visibility: 10 or more miles (16+ km)
Ceiling: 8500 feet AGL
Clouds: scattered clouds at 700 feet AGL
scattered clouds at 6500 feet AGL
overcast cloud deck at 8500 feet AGL
Weather: -RA  (light rain)

METAR text: KMIA 191553Z 02003KT 3SM R09/5500VP6000FT +RA BR BKN005 BKN060 OVC095 19/19 A3009 RMK AO2 RAB1454 SLP190 P0018 T01890189
Conditions at: KMIA (MIAMI , FL, US) observed 1553 UTC 19 March 2019
Temperature: 18.9°C (66°F)
Dewpoint: 18.9°C (66°F) [RH = 100%]
Pressure (altimeter): 30.09 inches Hg (1019.0 mb)
[Sea-level pressure: 1019.0 mb]
Winds: from the NNE (20 degrees) at 3 MPH (3 knots; 1.5 m/s)
Visibility: 3 miles ( 5 km)
Ceiling: 500 feet AGL
Clouds: broken clouds at 500 feet AGL
broken clouds at 6000 feet AGL
overcast cloud deck at 9500 feet AGL
Weather: +RA BR  (heavy rain, mist)

METAR text: KMIA 191549Z 00000KT 4SM R09/5500VP6000FT RA BR BKN005 BKN060 OVC095 19/19 A3009 RMK AO2 RAB1454 P0014
Conditions at: KMIA (MIAMI , FL, US) observed 1549 UTC 19 March 2019
Temperature: 19.0°C (66°F)
Dewpoint: 19.0°C (66°F) [RH = 100%]
Pressure (altimeter): 30.09 inches Hg (1019.0 mb)
Winds: calm
Visibility: 4 miles ( 6 km)
Ceiling: 500 feet AGL
Clouds: broken clouds at 500 feet AGL
broken clouds at 6000 feet AGL
overcast cloud deck at 9500 feet AGL
Weather: RA BR  (moderate rain, mist)

METAR text: KMIA 191453Z 02007KT 330V050 10SM FEW006 BKN045 OVC085 18/18 A3008 RMK AO2 RAE50 SLP185 P0010 60042 T01830178 51025
Conditions at: KMIA (MIAMI , FL, US) observed 1453 UTC 19 March 2019
Temperature: 18.3°C (65°F)
Dewpoint: 17.8°C (64°F) [RH = 97%]
Pressure (altimeter): 30.08 inches Hg (1018.7 mb)
[Sea-level pressure: 1018.5 mb]
Winds: from the NNE (20 degrees) at 8 MPH (7 knots; 3.6 m/s)
Visibility: 10 or more miles (16+ km)
Ceiling: 4500 feet AGL
Clouds: few clouds at 600 feet AGL
broken clouds at 4500 feet AGL
overcast cloud deck at 8500 feet AGL
Weather: no significant weather observed at this time

METAR text: KMIA 191433Z 03010G19KT 350V060 10SM -RA FEW006 BKN033 OVC085 18/18 A3006 RMK AO2 P0010 T01830178
Conditions at: KMIA (MIAMI , FL, US) observed 1433 UTC 19 March 2019
Temperature: 18.3°C (65°F)
Dewpoint: 17.8°C (64°F) [RH = 97%]
Pressure (altimeter): 30.06 inches Hg (1018.0 mb)
Winds: from the NNE (30 degrees) at 12 MPH (10 knots; 5.1 m/s)
gusting to 22 MPH (19 knots; 9.8 m/s)
Visibility: 10 or more miles (16+ km)
Ceiling: 3300 feet AGL
Clouds: few clouds at 600 feet AGL
broken clouds at 3300 feet AGL
overcast cloud deck at 8500 feet AGL
Weather: -RA  (light rain)

METAR text: KMIA 191426Z 03012G19KT 6SM -RA BR SCT006 BKN018 OVC033 18/18 A3006 RMK AO2 P0010 T01830183
Conditions at: KMIA (MIAMI , FL, US) observed 1426 UTC 19 March 2019
Temperature: 18.3°C (65°F)
Dewpoint: 18.3°C (65°F) [RH = 100%]
Pressure (altimeter): 30.06 inches Hg (1018.0 mb)
Winds: from the NNE (30 degrees) at 14 MPH (12 knots; 6.2 m/s)
gusting to 22 MPH (19 knots; 9.8 m/s)
Visibility: 6 miles (10 km)
Ceiling: 1800 feet AGL
Clouds: scattered clouds at 600 feet AGL
broken clouds at 1800 feet AGL
overcast cloud deck at 3300 feet AGL
Weather: -RA BR  (light rain, mist)

METAR text: KMIA 191413Z 01008KT 4SM RA BR BKN005 BKN012 OVC032 19/19 A3007 RMK AO2 P0007 T01940194
Conditions at: KMIA (MIAMI , FL, US) observed 1413 UTC 19 March 2019
Temperature: 19.4°C (67°F)
Dewpoint: 19.4°C (67°F) [RH = 100%]
Pressure (altimeter): 30.07 inches Hg (1018.4 mb)
Winds: from the N (10 degrees) at 9 MPH (8 knots; 4.1 m/s)
Visibility: 4 miles ( 6 km)
Ceiling: 500 feet AGL
Clouds: broken clouds at 500 feet AGL
broken clouds at 1200 feet AGL
overcast cloud deck at 3200 feet AGL
Weather: RA BR  (moderate rain, mist)

METAR text: KMIA 191353Z 35005KT 3SM R09/6000VP6000FT RA BR SCT006 SCT015 OVC026 19/19 A3006 RMK AO2 SLP180 P0030 T01940194
Conditions at: KMIA (MIAMI , FL, US) observed 1353 UTC 19 March 2019
Temperature: 19.4°C (67°F)
Dewpoint: 19.4°C (67°F) [RH = 100%]
Pressure (altimeter): 30.06 inches Hg (1018.0 mb)
[Sea-level pressure: 1018.0 mb]
Winds: from the N (350 degrees) at 6 MPH (5 knots; 2.6 m/s)
Visibility: 3 miles ( 5 km)
Ceiling: 2600 feet AGL
Clouds: scattered clouds at 600 feet AGL
scattered clouds at 1500 feet AGL
overcast cloud deck at 2600 feet AGL
Weather: RA BR  (moderate rain, mist)

METAR text: KMIA 191345Z 35006KT 1 3/4SM +RA BR SCT006 BKN015 OVC022 19/19 A3006 RMK AO2 P0026 T01940194
Conditions at: KMIA (MIAMI , FL, US) observed 1345 UTC 19 March 2019
Temperature: 19.4°C (67°F)
Dewpoint: 19.4°C (67°F) [RH = 100%]
Pressure (altimeter): 30.06 inches Hg (1018.0 mb)
Winds: from the N (350 degrees) at 7 MPH (6 knots; 3.1 m/s)
Visibility: 1.75 miles (2.82 km)
Ceiling: 1500 feet AGL
Clouds: scattered clouds at 600 feet AGL
broken clouds at 1500 feet AGL
overcast cloud deck at 2200 feet AGL
Weather: +RA BR  (heavy rain, mist)

METAR text: KMIA 191331Z 32006KT 1 3/4SM R09/4000VP6000FT RA BR BKN008 OVC012 19/19 A3006 RMK AO2 P0015 T01940194
Conditions at: KMIA (MIAMI , FL, US) observed 1331 UTC 19 March 2019
Temperature: 19.4°C (67°F)
Dewpoint: 19.4°C (67°F) [RH = 100%]
Pressure (altimeter): 30.06 inches Hg (1018.0 mb)
Winds: from the NW (320 degrees) at 7 MPH (6 knots; 3.1 m/s)
Visibility: 1.75 miles (2.82 km)
Ceiling: 800 feet AGL
Clouds: broken clouds at 800 feet AGL
overcast cloud deck at 1200 feet AGL
Weather: RA BR  (moderate rain, mist)

METAR text: KMIA 191321Z 28006KT 2SM RA BR OVC009 20/20 A3005 RMK AO2 PRESRR P0007 T02000200
Conditions at: KMIA (MIAMI , FL, US) observed 1321 UTC 19 March 2019
Temperature: 20.0°C (68°F)
Dewpoint: 20.0°C (68°F) [RH = 100%]
Pressure (altimeter): 30.05 inches Hg (1017.7 mb)
Winds: from the W (280 degrees) at 7 MPH (6 knots; 3.1 m/s)
Visibility: 2.00 miles (3.22 km)
Ceiling: 900 feet AGL
Clouds: overcast cloud deck at 900 feet AGL
Weather: RA BR  (moderate rain, mist)

METAR text: KMIA 191303Z VRB04KT 6SM -RA BR BKN009 BKN015 OVC026 20/20 A3003 RMK AO2 P0001 T02000200
Conditions at: KMIA (MIAMI , FL, US) observed 1303 UTC 19 March 2019
Temperature: 20.0°C (68°F)
Dewpoint: 20.0°C (68°F) [RH = 100%]
Pressure (altimeter): 30.03 inches Hg (1017.0 mb)
Winds: variable direction winds at 5 MPH (4 knots; 2.1 m/s)
Visibility: 6 miles (10 km)
Ceiling: 900 feet AGL
Clouds: broken clouds at 900 feet AGL
broken clouds at 1500 feet AGL
overcast cloud deck at 2600 feet AGL
Weather: -RA BR  (light rain, mist)

METAR text: KMIA 191253Z 02006KT 7SM -RA SCT010 BKN015 OVC024 20/20 A3002 RMK AO2 SLP166 P0002 T02000200
Conditions at: KMIA (MIAMI , FL, US) observed 1253 UTC 19 March 2019
Temperature: 20.0°C (68°F)
Dewpoint: 20.0°C (68°F) [RH = 100%]
Pressure (altimeter): 30.02 inches Hg (1016.7 mb)
[Sea-level pressure: 1016.6 mb]
Winds: from the NNE (20 degrees) at 7 MPH (6 knots; 3.1 m/s)
Visibility: 7 miles (11 km)
Ceiling: 1500 feet AGL
Clouds: scattered clouds at 1000 feet AGL
broken clouds at 1500 feet AGL
overcast cloud deck at 2400 feet AGL
Weather: -RA  (light rain)

METAR text: KMIA 191153Z 03008KT 10SM -RA BKN017 OVC029 20/19 A3000 RMK AO2 RAE1054B12 SLP159 P0006 60007 70008 T02000189 10211 20194 53013
Conditions at: KMIA (MIAMI , FL, US) observed 1153 UTC 19 March 2019
Temperature: 20.0°C (68°F)
Dewpoint: 18.9°C (66°F) [RH = 93%]
Pressure (altimeter): 30.00 inches Hg (1016.0 mb)
[Sea-level pressure: 1015.9 mb]
Winds: from the NNE (30 degrees) at 9 MPH (8 knots; 4.1 m/s)
Visibility: 10 or more miles (16+ km)
Ceiling: 1700 feet AGL
Clouds: broken clouds at 1700 feet AGL
overcast cloud deck at 2900 feet AGL
Weather: -RA  (light rain)

METAR text: KMIA 191053Z 03006KT 10SM -RA BKN019 BKN025 OVC031 20/19 A2999 RMK AO2 RAE07B11 SLP154 P0001 T02000194
Conditions at: KMIA (MIAMI , FL, US) observed 1053 UTC 19 March 2019
Temperature: 20.0°C (68°F)
Dewpoint: 19.4°C (67°F) [RH = 96%]
Pressure (altimeter): 29.99 inches Hg (1015.7 mb)
[Sea-level pressure: 1015.4 mb]
Winds: from the NNE (30 degrees) at 7 MPH (6 knots; 3.1 m/s)
Visibility: 10 or more miles (16+ km)
Ceiling: 1900 feet AGL
Clouds: broken clouds at 1900 feet AGL
broken clouds at 2500 feet AGL
overcast cloud deck at 3100 feet AGL
Weather: -RA  (light rain)

METAR text: KMIA 191022Z 03007G17KT 4SM -RA BR FEW009 BKN015 OVC024 20/19 A2998 RMK AO2 RAE07B11 P0000 T02000194
Conditions at: KMIA (MIAMI , FL, US) observed 1022 UTC 19 March 2019
Temperature: 20.0°C (68°F)
Dewpoint: 19.4°C (67°F) [RH = 96%]
Pressure (altimeter): 29.98 inches Hg (1015.3 mb)
Winds: from the NNE (30 degrees) at 8 MPH (7 knots; 3.6 m/s)
gusting to 20 MPH (17 knots; 8.7 m/s)
Visibility: 4 miles ( 6 km)
Ceiling: 1500 feet AGL
Clouds: few clouds at 900 feet AGL
broken clouds at 1500 feet AGL
overcast cloud deck at 2400 feet AGL
Weather: -RA BR  (light rain, mist)

METAR text: KMIA 191010Z 01008G16KT 340V040 9SM BKN015 OVC024 20/19 A2998 RMK AO2 RAE07 P0000 T02000189
Conditions at: KMIA (MIAMI , FL, US) observed 1010 UTC 19 March 2019
Temperature: 20.0°C (68°F)
Dewpoint: 18.9°C (66°F) [RH = 93%]
Pressure (altimeter): 29.98 inches Hg (1015.3 mb)
Winds: from the N (10 degrees) at 9 MPH (8 knots; 4.1 m/s)
gusting to 18 MPH (16 knots; 8.2 m/s)
Visibility: 9 miles (14 km)
Ceiling: 1500 feet AGL
Clouds: broken clouds at 1500 feet AGL
overcast cloud deck at 2400 feet AGL
Weather: no significant weather observed at this time

METAR text: KMIA 190953Z 04008KT 8SM -RA BKN014 OVC023 21/19 A2998 RMK AO2 RAB48 SLP151 P0000 T02060189
Conditions at: KMIA (MIAMI , FL, US) observed 0953 UTC 19 March 2019
Temperature: 20.6°C (69°F)
Dewpoint: 18.9°C (66°F) [RH = 90%]
Pressure (altimeter): 29.98 inches Hg (1015.3 mb)
[Sea-level pressure: 1015.1 mb]
Winds: from the NE (40 degrees) at 9 MPH (8 knots; 4.1 m/s)
Visibility: 8 miles (13 km)
Ceiling: 1400 feet AGL
Clouds: broken clouds at 1400 feet AGL
overcast cloud deck at 2300 feet AGL
Weather: -RA  (light rain)

METAR text: KMIA 190853Z 02007G16KT 10SM BKN013 OVC025 21/19 A2997 RMK AO2 SLP147 T02110194 58020
Conditions at: KMIA (MIAMI , FL, US) observed 0853 UTC 19 March 2019
Temperature: 21.1°C (70°F)
Dewpoint: 19.4°C (67°F) [RH = 90%]
Pressure (altimeter): 29.97 inches Hg (1015.0 mb)
[Sea-level pressure: 1014.7 mb]
Winds: from the NNE (20 degrees) at 8 MPH (7 knots; 3.6 m/s)
gusting to 18 MPH (16 knots; 8.2 m/s)
Visibility: 10 or more miles (16+ km)
Ceiling: 1300 feet AGL
Clouds: broken clouds at 1300 feet AGL
overcast cloud deck at 2500 feet AGL
Weather: no significant weather observed at this time

METAR text: KMIA 190753Z 36007KT 320V020 6SM BR BKN012 OVC025 21/19 A2999 RMK AO2 SLP155 T02110194
Conditions at: KMIA (MIAMI , FL, US) observed 0753 UTC 19 March 2019
Temperature: 21.1°C (70°F)
Dewpoint: 19.4°C (67°F) [RH = 90%]
Pressure (altimeter): 29.99 inches Hg (1015.7 mb)
[Sea-level pressure: 1015.5 mb]
Winds: from the N (360 degrees) at 8 MPH (7 knots; 3.6 m/s)
Visibility: 6 miles (10 km)
Ceiling: 1200 feet AGL
Clouds: broken clouds at 1200 feet AGL
overcast cloud deck at 2500 feet AGL
Weather: BR  (mist)

METAR text: KMIA 190653Z 35008KT 8SM OVC011 21/19 A3000 RMK AO2 SLP160 T02110194
Conditions at: KMIA (MIAMI , FL, US) observed 0653 UTC 19 March 2019
Temperature: 21.1°C (70°F)
Dewpoint: 19.4°C (67°F) [RH = 90%]
Pressure (altimeter): 30.00 inches Hg (1016.0 mb)
[Sea-level pressure: 1016.0 mb]
Winds: from the N (350 degrees) at 9 MPH (8 knots; 4.1 m/s)
Visibility: 8 miles (13 km)
Ceiling: 1100 feet AGL
Clouds: overcast cloud deck at 1100 feet AGL
Weather: no significant weather observed at this time

METAR text: KMIA 190625Z 33007KT 10SM BKN013 OVC026 21/19 A3002 RMK AO2 T02110194
Conditions at: KMIA (MIAMI , FL, US) observed 0625 UTC 19 March 2019
Temperature: 21.1°C (70°F)
Dewpoint: 19.4°C (67°F) [RH = 90%]
Pressure (altimeter): 30.02 inches Hg (1016.7 mb)
Winds: from the NNW (330 degrees) at 8 MPH (7 knots; 3.6 m/s)
Visibility: 10 or more miles (16+ km)
Ceiling: 1300 feet AGL
Clouds: broken clouds at 1300 feet AGL
overcast cloud deck at 2600 feet AGL
Weather: no significant weather observed at this time

METAR text: KMIA 190553Z 34004KT 10SM SCT013 BKN026 OVC040 21/19 A3002 RMK AO2 SLP167 60001 T02110189 10244 20211 56007
Conditions at: KMIA (MIAMI , FL, US) observed 0553 UTC 19 March 2019
Temperature: 21.1°C (70°F)
Dewpoint: 18.9°C (66°F) [RH = 87%]
Pressure (altimeter): 30.02 inches Hg (1016.7 mb)
[Sea-level pressure: 1016.7 mb]
Winds: from the NNW (340 degrees) at 5 MPH (4 knots; 2.1 m/s)
Visibility: 10 or more miles (16+ km)
Ceiling: 2600 feet AGL
Clouds: scattered clouds at 1300 feet AGL
broken clouds at 2600 feet AGL
overcast cloud deck at 4000 feet AGL
Weather: no significant weather observed at this time

METAR text: KMIA 190543Z 36005KT 10SM FEW013 BKN026 OVC040 21/19 A3002 RMK AO2 T02110189
Conditions at: KMIA (MIAMI , FL, US) observed 0543 UTC 19 March 2019
Temperature: 21.1°C (70°F)
Dewpoint: 18.9°C (66°F) [RH = 87%]
Pressure (altimeter): 30.02 inches Hg (1016.7 mb)
Winds: from the N (360 degrees) at 6 MPH (5 knots; 2.6 m/s)
Visibility: 10 or more miles (16+ km)
Ceiling: 2600 feet AGL
Clouds: few clouds at 1300 feet AGL
broken clouds at 2600 feet AGL
overcast cloud deck at 4000 feet AGL
Weather: no significant weather observed at this time

METAR text: KMIA 190453Z 34005KT 10SM FEW015 BKN032 OVC120 21/19 A3003 RMK AO2 SLP168 T02110189 402720200
Conditions at: KMIA (MIAMI , FL, US) observed 0453 UTC 19 March 2019
Temperature: 21.1°C (70°F)
Dewpoint: 18.9°C (66°F) [RH = 87%]
Pressure (altimeter): 30.03 inches Hg (1017.0 mb)
[Sea-level pressure: 1016.8 mb]
Winds: from the NNW (340 degrees) at 6 MPH (5 knots; 2.6 m/s)
Visibility: 10 or more miles (16+ km)
Ceiling: 3200 feet AGL
Clouds: few clouds at 1500 feet AGL
broken clouds at 3200 feet AGL
overcast cloud deck at 12000 feet AGL
Weather: no significant weather observed at this time

METAR text: KMIA 190353Z 36007KT 10SM FEW020 SCT090 BKN130 OVC180 22/19 A3003 RMK AO2 SLP170 T02170189
Conditions at: KMIA (MIAMI , FL, US) observed 0353 UTC 19 March 2019
Temperature: 21.7°C (71°F)
Dewpoint: 18.9°C (66°F) [RH = 84%]
Pressure (altimeter): 30.03 inches Hg (1017.0 mb)
[Sea-level pressure: 1017.0 mb]
Winds: from the N (360 degrees) at 8 MPH (7 knots; 3.6 m/s)
Visibility: 10 or more miles (16+ km)
Ceiling: 13000 feet AGL
Clouds: few clouds at 2000 feet AGL
scattered clouds at 9000 feet AGL
broken clouds at 13000 feet AGL
overcast cloud deck at 18000 feet AGL
Weather: no significant weather observed at this time

Forecast for: KMIA (MIAMI , FL, US)
Text: KMIA 201357Z 2014/2118 34008KT P6SM VCSH SCT010 SCT025 BKN050
Forecast period: 1400 to 1600 UTC 20 March 2019
Forecast type: FROM: standard forecast or significant change
Winds: from the NNW (340 degrees) at 9 MPH (8 knots; 4.1 m/s)
Visibility: 6 or more miles 10+ km)
Ceiling: 5000 feet AGL
Clouds: scattered clouds at 1000 feet AGL
scattered clouds at 2500 feet AGL
broken clouds at 5000 feet AGL
Weather: VCSH  (showers in vicinity)
Text: TEMPO 2014/2015 BKN008
Forecast period: 1400 to 1500 UTC 20 March 2019
Forecast type: TEMPORARY: The following changes expected for less than half the time period
Visibility: missing
Ceiling: 800 feet AGL
Clouds: broken clouds at 800 feet AGL
Weather: no significant weather forecast for this period
Text: FM201600 05009KT P6SM VCSH BKN035 BKN050
Forecast period: 1600 UTC 20 March 2019 to 0000 UTC 21 March 2019
Forecast type: FROM: standard forecast or significant change
Winds: from the NE (50 degrees) at 10 MPH (9 knots; 4.6 m/s)
Visibility: 6 or more miles 10+ km)
Ceiling: 3500 feet AGL
Clouds: broken clouds at 3500 feet AGL
broken clouds at 5000 feet AGL
Weather: VCSH  (showers in vicinity)
Text: FM210000 05007KT P6SM FEW015 SCT025 BKN050
Forecast period: 0000 to 1800 UTC 21 March 2019
Forecast type: FROM: standard forecast or significant change
Winds: from the NE (50 degrees) at 8 MPH (7 knots; 3.6 m/s)
Visibility: 6 or more miles 10+ km)
Ceiling: 5000 feet AGL
Clouds: few clouds at 1500 feet AGL
scattered clouds at 2500 feet AGL
broken clouds at 5000 feet AGL
Weather: no significant weather forecast for this period